Montreal International (Mirabel) Airport

CYMX · Quebec, 加拿大

METAR的历史 CYMX · Montreal International (Mirabel) Airport

下面你可以看到过去几天的METARs。 选择年份以浏览从2007年开始的旧METAR。

2022年12月2日

时间 代码 天气 温度 能见度 天花板 METAR/SPECI
14:00
V
3 °C 45 mi 12.000 ft 180° 180° 5 kt SPECI CYMX 021900Z 18005KT 45SM FEW030 BKN120 03/M03 A3031 RMK SC1AC6 SLP271
14:00
V
3 °C 45 mi 12.000 ft 180° 180° 5 kt METAR CYMX 021900Z 18005KT 45SM FEW030 BKN120 03/M03 A3031 RMK SC1AC6 SLP271
13:00
M
2 °C 30 mi 2.900 ft 170° 170° 5 kt METAR CYMX 021800Z 17005KT 30SM BKN029 BKN120 02/M02 A3033 RMK SC5AC2 SLP279
12:00
M
1 °C 30 mi 2.800 ft 150° 150° 4 kt METAR CYMX 021700Z 15004KT 130V200 30SM FEW019 BKN028 OVC120 01/M02 A3035 RMK SC1SC6AC1 SLP285
11:00
V
0 °C 45 mi 3.500 ft 070° 070° 3 kt METAR CYMX 021600Z 07003KT 010V100 45SM FEW025 BKN035 BKN130 00/M03 A3038 RMK SC1SC5AC1 PRESFR SLP293
10:00
V
-2 °C 45 mi 4.000 ft 030° 030° 3 kt METAR CYMX 021500Z 03003KT 360V070 45SM FEW025 BKN040 BKN220 M02/M05 A3040 RMK SC1SC5CI1 SLP301
09:00
V
-3 °C 45 mi 4.100 ft 360° 360° 3 kt METAR CYMX 021400Z 36003KT 350V050 45SM FEW022 BKN041 BKN250 M03/M06 A3041 RMK SC2SC5CI1 CI TR SLP306
08:00
V
-4 °C 45 mi 4.100 ft Var 000° 0 kt METAR CYMX 021300Z 00000KT 45SM BKN041 BKN250 M04/M06 A3041 RMK SC7CI1 CI TR SLP307
07:00
V
-5 °C 45 mi 4.300 ft 190° 190° 2 kt METAR CYMX 021200Z 19002KT 45SM BKN043 BKN250 M05/M08 A3040 RMK SC6CI1 SLP303
06:00
V
-5 °C 25 mi 14.000 ft 230° 230° 2 kt METAR CYMX 021100Z 23002KT 25SM SCT043 BKN140 M05/M07 A3041 RMK SC4AC2 SLP304
05:00
V
-5 °C 25 mi 25.000 ft 230° 230° 2 kt METAR CYMX 021000Z 23002KT 25SM SCT150 BKN250 M05/M08 A3038 RMK AC3CI2 SLP295
04:00
V
-5 °C 25 mi 15.000 ft 220° 220° 3 kt METAR CYMX 020900Z 22003KT 25SM BKN150 BKN210 M05/M08 A3037 RMK AC5CI1 SLP291
03:00
V
-5 °C 25 mi 21.000 ft 210° 210° 3 kt METAR CYMX 020800Z 21003KT 25SM BKN210 M05/M08 A3038 RMK CI6 SLP295
02:00
V
-4 °C 25 mi - 240° 240° 3 kt METAR CYMX 020700Z 24003KT 210V280 25SM SKC M04/M08 A3036 RMK SLP288
01:00
V
-4 °C 25 mi - 220° 220° 3 kt METAR CYMX 020600Z 22003KT 200V260 25SM SKC M04/M08 A3036 RMK SLP286
00:00
V
-3 °C 25 mi - 260° 260° 3 kt METAR CYMX 020500Z 26003KT 190V290 25SM FEW250 M03/M08 A3034 RMK CI2 SLP281

2022年12月1日

时间 代码 天气 温度 能见度 天花板 METAR/SPECI
23:00
V
-3 °C 25 mi 25.000 ft 230° 230° 5 kt METAR CYMX 020400Z 23005KT 25SM FEW050 BKN250 M03/M09 A3031 RMK SC1CS5 SLP271
22:00
V
-3 °C 25 mi 25.000 ft 270° 270° 3 kt METAR CYMX 020300Z 27003KT 230V300 25SM FEW050 BKN250 M03/M09 A3032 RMK SC2CS4 SLP273
21:00
V
-3 °C 25 mi - 230° 230° 3 kt METAR CYMX 020200Z 23003KT 25SM SCT050 M03/M08 A3030 RMK SC3 SLP268
20:00
V
-2 °C 25 mi - 280° 280° 3 kt METAR CYMX 020100Z 28003KT 230V320 25SM SCT050 M02/M08 A3029 RMK SC4 SLP264
19:13
V
-1 °C 25 mi 4.800 ft 270° 270° 5 kt METAR CYMX 020013Z 27005KT 210V310 25SM BKN048 M01/M08 A3027 RMK SC6 SLP257
19:00
V
-1 °C 25 mi 5.200 ft 290° 290° 5 kt METAR CYMX 020000Z 29005KT 250V330 25SM -SHSN BKN052TCU M01/M08 A3026 RMK TCU6 SLP254
18:21
V
-1 °C 25 mi 5.100 ft 290° 290° 7 - 17 kt METAR CYMX 012321Z 29007G17KT 250V340 25SM -SHSN BKN051TCU M01/M08 A3024 RMK TCU6 SLP249
18:00
V
-1 °C 25 mi 4.300 ft 290° 290° 5 - 21 kt METAR CYMX 012300Z 29005G21KT 250V330 25SM BKN043 M01/M08 A3023 RMK CU5 SLP243
17:00
V
0 °C 25 mi 4.300 ft 270° 270° 6 kt METAR CYMX 012200Z 27006KT 220V310 25SM VCSH BKN043 M00/M08 A3019 RMK CU6 SH DIST NE PRESRR SLP228
16:00
V
0 °C 30 mi 4.300 ft 260° 260° 5 kt METAR CYMX 012100Z 26005KT 220V310 30SM BKN043 M00/M07 A3013 RMK SC7 SLP210
15:00
V
0 °C 30 mi 4.400 ft 270° 270° 8 - 15 kt METAR CYMX 012000Z 27008G15KT 220V330 30SM BKN044 00/M08 A3008 RMK CU7 OCNL -SHSN PRESRR SLP194
14:00
V
0 °C 30 mi 3.500 ft 270° 270° 11 - 20 kt METAR CYMX 011900Z 27011G20KT 230V290 30SM -SHSN BKN035 00/M06 A3002 RMK CU7 VIS NE 2 SLP174
13:00
V
1 °C 20 mi 4.300 ft 290° 290° 13 - 24 kt METAR CYMX 011800Z CCA 29013G24KT 240V330 20SM -SHSN BKN043 BKN250 01/M08 A2999 RMK CU6CI1 CI TR VIS E 5 SLP162
12:00
M
-1 °C 12 mi 2.300 ft 280° 280° 7 - 22 kt METAR CYMX 011700Z 28007G22KT 250V320 12SM BKN023 BKN090 M01/M06 A2995 RMK CU5AC1 OCNL -SHSN SLP149
11:52
I
-1 °C 2 mi 2.200 ft 300° 300° 12 - 25 kt METAR CYMX 011652Z 30012G25KT 250V330 2SM -SHSN DRSN SCT014 BKN022 M01/M05 A2995 RMK CF3CU4 VIS NW-NE 12 PRESRR SLP149
11:00
V
1 °C 30 mi 4.000 ft 260° 260° 14 - 24 kt METAR CYMX 011600Z 26014G24KT 230V300 30SM BKN040 BKN150 BKN250 01/M07 A2991 RMK CU5AC1CI1 OCNL -SHSN SLP135
10:00
V
0 °C 15 mi 4.400 ft 260° 260° 10 - 19 kt METAR CYMX 011500Z 26010G19KT 220V290 15SM -SHSN FEW015 BKN044 00/M05 A2988 RMK CF1CU6 PRESRR SLP125
09:00
V
-1 °C 15 mi 25.000 ft 250° 250° 9 - 18 kt METAR CYMX 011400Z 25009G18KT 15SM -SHSN DRSN FEW015 SCT043 SCT150 BKN250 M01/M04 A2983 RMK CF1CU2AC1CI1 SLP109
08:00
V
-2 °C 12 mi 25.000 ft 250° 250° 8 - 17 kt METAR CYMX 011300Z 25008G17KT 220V290 12SM -SHSN DRSN FEW005 SCT044 BKN250 M02/M03 A2980 RMK CF1CU2CI1 SLP097
07:46
I
-2 °C 1 mi 3.900 ft 240° 240° 10 - 18 kt SPECI CYMX 011246Z 24010G18KT 1SM R24/P6000FT/D -SHSN DRSN BKN039 M02/M03 A2979 RMK CU7 VIS NE QUAD 8 PRESRR SLP094
07:00
M
-1 °C 6 mi 2.700 ft 240° 240° 12 - 24 kt METAR CYMX 011200Z 24012G24KT 6SM -SHSN DRSN OVC027 M01/M05 A2975 RMK SC8 CVCTV CLD EMBD SLP080
06:30
V
-1 °C 20 mi 3.900 ft 250° 250° 14 - 21 kt METAR CYMX 011130Z 25014G21KT 200V270 20SM -SHSN DRSN BKN039 M01/M04 A2974 RMK CU6 SLP076
06:09
I
-2 °C 3 mi 2.300 ft 240° 240° 13 - 26 kt SPECI CYMX 011109Z 24013G26KT 3SM -SN SCT015 OVC023 M02/M04 A2973 RMK SF4SC4 VIS VRB 2-4 SLP074
06:00
I
-1 °C 2½ mi 1.300 ft 230° 230° 11 - 21 kt METAR CYMX 011100Z 23011G21KT 210V280 2 1/2SM -SN BKN013 OVC022 M01/M04 A2973 RMK SF5SC3 SLP074
05:47
I
-1 °C 2½ mi 2.300 ft 240° 240° 13 - 23 kt SPECI CYMX 011047Z 24013G23KT 210V270 2 1/2SM -SN OVC023 M01/M04 A2973 RMK SC8 SLP072
05:14
M
-1 °C 10 mi 2.000 ft 240° 240° 11 - 24 kt METAR CYMX 011014Z 24011G24KT 10SM -SN OVC020 M01/M05 A2972 RMK SC8 SLP069
05:00
V
-1 °C 25 mi 3.700 ft 230° 230° 12 - 20 kt METAR CYMX 011000Z 23012G20KT 25SM OVC037 M01/M06 A2972 RMK SC8 SLP068
04:00
V
-1 °C 25 mi 4.700 ft 230° 230° 12 - 21 kt METAR CYMX 010900Z 23012G21KT 25SM BKN047 M01/M05 A2971 RMK SC6 SLP065
03:00
V
-1 °C 25 mi - 240° 240° 13 - 23 kt METAR CYMX 010800Z 24013G23KT 25SM SCT050 M01/M06 A2969 RMK SC4 SLP058
02:00
V
0 °C 25 mi 4.000 ft 230° 230° 15 - 24 kt METAR CYMX 010700Z 23015G24KT 25SM BKN040 M00/M06 A2967 RMK SC5 SLP052
01:00
V
0 °C 20 mi 7.400 ft 240° 240° 13 - 21 kt METAR CYMX 010600Z 24013G21KT 20SM SCT035 BKN074 00/M04 A2964 RMK SC3AC4 SLP043
00:25
V
0 °C 25 mi 3.300 ft 240° 240° 12 - 26 kt METAR CYMX 010525Z 24012G26KT 210V280 25SM BKN033 00/M04 A2964 RMK SC7 SLP041
00:00
V
1 °C 10 mi 3.100 ft 240° 240° 17 - 30 kt METAR CYMX 010500Z 24017G30KT 200V270 10SM -SN BKN031 OVC078 01/M03 A2963 RMK SC6AC2 SLP040

2022年11月30日

时间 代码 天气 温度 能见度 天花板 METAR/SPECI
23:35
V
1 °C 25 mi 7.200 ft 250° 250° 14 - 27 kt METAR CYMX 010435Z 25014G27KT 25SM -SN SCT026 OVC072 01/M03 A2963 RMK SC4AC4 SLP038
23:00
V
1 °C 8 mi 3.200 ft 230° 230° 12 - 26 kt METAR CYMX 010400Z 23012G26KT 8SM -RA OVC032 01/M02 A2962 RMK SC8 SLP037
22:41
V
2 °C 10 mi 3.000 ft 240° 240° 15 - 24 kt METAR CYMX 010341Z 24015G24KT 10SM -RA OVC030 02/M02 A2962 RMK SC8 SLP036
22:26
M
2 °C 20 mi 2.600 ft 250° 250° 9 - 25 kt METAR CYMX 010326Z 25009G25KT 210V290 20SM OVC026 02/M02 A2961 RMK SC8 SLP034
22:17
M
2 °C 10 mi 2.800 ft 250° 250° 12 - 20 kt METAR CYMX 010317Z 25012G20KT 210V270 10SM -RA OVC028 02/M02 A2962 RMK SC8 SLP035
22:00
M
2 °C 20 mi 2.700 ft 250° 250° 9 - 20 kt METAR CYMX 010300Z 25009G20KT 220V300 20SM BKN027 02/M03 A2961 RMK SC7 SLP033
21:00
V
2 °C 25 mi 6.000 ft 260° 260° 13 - 29 kt METAR CYMX 010200Z 26013G29KT 25SM SCT023 BKN060 02/M02 A2958 RMK SC3SC4 SLP024
20:00
M
4 °C 25 mi 2.400 ft 240° 240° 12 - 20 kt METAR CYMX 010100Z 24012G20KT 200V280 25SM BKN024 OVC075 04/01 A2955 RMK SC6AC2 SLP013
19:00
M
4 °C 25 mi 2.300 ft 250° 250° 12 - 23 kt METAR CYMX 010000Z 25012G23KT 210V280 25SM BKN023 OVC100 04/02 A2953 RMK SC6AC2 PRESRR SLP005
18:40
M
5 °C 25 mi 2.300 ft 250° 250° 13 - 31 kt METAR CYMX 302340Z 25013G31KT 210V290 25SM BKN023 OVC090 05/02 A2951 RMK SC6AC2 PRESRR SLP998
18:00
M
5 °C 15 mi 2.200 ft 250° 250° 17 - 38 kt METAR CYMX 302300Z 25017G38KT 15SM -RA SCT015 OVC022 05/03 A2945 RMK SC3SC5 PRESRR SLP977
17:00
M
7 °C 15 mi 2.400 ft 200° 200° 16 - 24 kt METAR CYMX 302200Z 20016G24KT 15SM -RA SCT012 BKN024 OVC035 07/06 A2939 RMK SC3SC3SC2 SLP958
16:00
M
6 °C 8 mi 1.100 ft 170° 170° 7 kt METAR CYMX 302100Z 17007KT 8SM -RA BKN011 OVC017 06/06 A2939 RMK SC5SC3 SLP958
15:24
I
6 °C 6 mi 700 ft 150° 150° 7 kt METAR CYMX 302024Z 15007KT 120V180 6SM RA BR BKN007 OVC040 06/05 A2939 RMK SF5SC3 PRESFR SLP957
15:00
V
6 °C 6 mi 3.600 ft 140° 140° 9 - 16 kt METAR CYMX 302000Z 14009G16KT 120V190 6SM RA BR SCT013 BKN036 OVC042 06/05 A2940 RMK SC3SC2SC3 SLP962
14:22
M
6 °C 6 mi 1.300 ft 160° 160° 9 - 19 kt METAR CYMX 301922Z 16009G19KT 6SM RA BR BKN013 OVC027 06/05 A2943 RMK SC5SC3 SLP972
14:00
M
6 °C 6 mi 1.300 ft 140° 140° 9 - 17 kt METAR CYMX 301900Z 14009G17KT 6SM -RA BR BKN013 OVC022 06/05 A2944 RMK SC5SC3 SLP976
13:26
M
5 °C 6 mi 1.300 ft 120° 120° 7 kt METAR CYMX 301826Z 12007KT 090V160 6SM -RA BR BKN013 OVC026 05/04 A2947 RMK SC5SC3 SLP984
13:00
M
5 °C 4 mi 1.100 ft 130° 130° 8 kt METAR CYMX 301800Z 13008KT 080V160 4SM RA BR BKN011 OVC024 05/04 A2950 RMK SC5SC3 SLP994
12:00
I
4 °C 3 mi 2.800 ft 140° 140° 11 - 19 kt METAR CYMX 301700Z 14011G19KT 3SM RA BR SCT016 OVC028 04/03 A2958 RMK SC3SC5 PRESFR SLP021
11:53
M
4 °C 3 mi 2.800 ft 140° 140° 10 - 21 kt METAR CYMX 301653Z 14010G21KT 3SM RA BR OVC028 04/03 A2958 RMK SC8 PRESFR SLP024
11:00
V
3 °C 10 mi 3.000 ft 130° 130° 7 - 15 kt METAR CYMX 301600Z 13007G15KT 090V160 10SM -RA FEW020 OVC030 03/01 A2967 RMK SC2SC6 PRESFR SLP052
10:00
V
3 °C 20 mi 3.100 ft 130° 130° 11 - 16 kt METAR CYMX 301500Z 13011G16KT 20SM -RA OVC031 03/00 A2975 RMK SC8 PRESFR SLP082
09:53
V
3 °C 20 mi 3.300 ft 130° 130° 9 - 16 kt METAR CYMX 301453Z 13009G16KT 100V160 20SM -RA OVC033 03/M00 A2976 RMK SC8 PRESFR SLP085
09:00
V
3 °C 30 mi 3.700 ft 130° 130° 8 - 19 kt METAR CYMX 301400Z 13008G19KT 080V160 30SM BKN037 OVC120 03/M01 A2982 RMK SC6AC2 SLP103
08:00
V
2 °C 30 mi 3.600 ft 110° 110° 8 kt METAR CYMX 301300Z 11008KT 070V130 30SM BKN036 BKN130 OVC250 02/M02 A2987 RMK SC5AC2CI1 SLP120
07:00
V
-1 °C 25 mi 25.000 ft 050° 050° 5 kt METAR CYMX 301200Z 05005KT 25SM FEW030 SCT130 BKN250 M01/M04 A2991 RMK SC1AC4CI2 SC TR PRESFR SLP136
06:00
V
-2 °C 25 mi 14.000 ft 060° 060° 3 kt METAR CYMX 301100Z 06003KT 020V090 25SM SCT041 BKN140 M02/M04 A2994 RMK SC3AC3 SLP147
05:00
V
-1 °C 25 mi 4.600 ft 060° 060° 5 kt METAR CYMX 301000Z 06005KT 25SM BKN046 BKN160 M01/M04 A2997 RMK SC5AC2 SLP154

我们和第三方通过cookies跟踪您在我们网站上的互联网行为。如果你继续,我们认为你同意我们的饼干政策